Time;durP1;ratioP1;P1;durP2;ratioP2;P2;SDS_P1;SDS_P2;PMS_P1;PMS_P2;Temp;Humidity;BMP_temperature;BMP_pressure;BME280_temperature;BME280_humidity;BME280_pressure;Samples;Min_cycle;Max_cycle;Signal;HPM_P1;HPM_P2
2023/08/14 00:02:08;;;;;;;7.22;3.53;;;;;;;;;;5033811;28;20048;-77
2023/08/14 00:04:33;;;;;;;5.20;3.80;;;;;;;;;;5032290;28;20397;-76
2023/08/14 00:06:59;;;;;;;6.70;3.55;;;;;;;;;;5033066;28;20025;-77
2023/08/14 00:09:25;;;;;;;5.53;3.63;;;;;;;;;;5031145;28;20033;-77
2023/08/14 00:11:51;;;;;;;5.97;3.50;;;;;;;;;;5033276;28;20029;-76
2023/08/14 00:14:17;;;;;;;5.85;3.80;;;;;;;;;;5014795;28;20037;-75
2023/08/14 00:16:44;;;;;;;5.40;3.58;;;;;;;;;;5031400;28;20489;-76
2023/08/14 00:19:10;;;;;;;5.35;3.70;;;;;;;;;;5031459;28;20029;-77
2023/08/14 00:21:36;;;;;;;6.35;3.63;;;;;;;;;;5031208;28;20625;-77
2023/08/14 00:24:02;;;;;;;3.58;3.08;;;;;;;;;;5033042;28;20033;-76
2023/08/14 00:26:29;;;;;;;6.28;3.38;;;;;;;;;;5014738;28;20348;-77
2023/08/14 00:28:55;;;;;;;5.47;3.65;;;;;;;;;;5015418;28;20112;-76
2023/08/14 00:31:21;;;;;;;7.35;3.90;;;;;;;;;;5015260;28;20463;-76
2023/08/14 00:33:47;;;;;;;7.75;3.80;;;;;;;;;;5038401;28;20490;-77
2023/08/14 00:36:13;;;;;;;6.53;3.70;;;;;;;;;;5036550;28;20056;-78
2023/08/14 00:38:39;;;;;;;6.88;3.78;;;;;;;;;;5019437;28;20033;-78
2023/08/14 00:41:05;;;;;;;4.15;3.30;;;;;;;;;;5040114;28;20021;-76
2023/08/14 00:43:31;;;;;;;3.83;3.10;;;;;;;;;;5043200;28;20366;-77
2023/08/14 00:45:57;;;;;;;5.03;3.42;;;;;;;;;;5038138;28;20041;-77
2023/08/14 00:48:27;;;;;;;7.30;3.15;;;;;;;;;;5016017;28;20071;-78
2023/08/14 00:50:56;;;;;;;4.60;3.10;;;;;;;;;;5031009;28;20116;-78
2023/08/14 00:53:25;;;;;;;5.05;3.42;;;;;;;;;;5031549;28;20075;-77
2023/08/14 00:55:53;;;;;;;5.57;3.38;;;;;;;;;;5014170;28;20021;-77
2023/08/14 00:58:19;;;;;;;5.03;2.83;;;;;;;;;;5029883;28;20032;-77
2023/08/14 01:00:45;;;;;;;10.15;3.75;;;;;;;;;;5013698;28;20029;-78
2023/08/14 01:03:12;;;;;;;5.07;2.90;;;;;;;;;;5031461;28;20124;-77
2023/08/14 01:05:38;;;;;;;5.63;3.28;;;;;;;;;;5030251;28;20029;-78
2023/08/14 01:08:04;;;;;;;6.55;3.60;;;;;;;;;;5013858;28;20025;-76
2023/08/14 01:10:58;;;;;;;6.60;3.55;;;;;;;;;;5013854;28;20482;-77
2023/08/14 01:14:01;;;;;;;5.38;3.60;;;;;;;;;;5030605;28;20026;-77
2023/08/14 01:16:33;;;;;;;10.55;3.15;;;;;;;;;;5014876;28;20029;-76
2023/08/14 01:19:00;;;;;;;5.80;3.30;;;;;;;;;;5014412;28;20026;-76
2023/08/14 01:21:47;;;;;;;5.45;3.33;;;;;;;;;;5013631;28;20040;-77
2023/08/14 01:24:22;;;;;;;4.65;3.40;;;;;;;;;;5030078;28;20064;-77
2023/08/14 01:26:52;;;;;;;7.90;3.80;;;;;;;;;;5026684;28;20049;-77
2023/08/14 01:29:17;;;;;;;4.13;3.30;;;;;;;;;;5009904;28;20369;-78
2023/08/14 01:31:43;;;;;;;6.30;3.65;;;;;;;;;;5010499;28;20026;-77
2023/08/14 01:34:10;;;;;;;6.78;3.67;;;;;;;;;;5010682;28;20431;-77
2023/08/14 01:36:47;;;;;;;5.65;3.28;;;;;;;;;;5026397;28;20034;-76
2023/08/14 01:39:18;;;;;;;5.78;3.58;;;;;;;;;;5010559;28;20030;-77
2023/08/14 01:41:55;;;;;;;5.20;3.92;;;;;;;;;;5010463;28;20423;-77
2023/08/14 01:44:24;;;;;;;4.63;3.60;;;;;;;;;;5011487;28;20363;-77
2023/08/14 01:46:52;;;;;;;13.48;4.55;;;;;;;;;;5010001;28;20420;-76
2023/08/14 01:49:19;;;;;;;12.65;3.95;;;;;;;;;;5009912;28;20029;-77
2023/08/14 01:51:50;;;;;;;6.43;3.08;;;;;;;;;;5026375;28;20030;-77
2023/08/14 01:54:16;;;;;;;6.72;3.40;;;;;;;;;;5025843;28;20540;-75
2023/08/14 01:56:42;;;;;;;7.32;3.17;;;;;;;;;;5026521;28;20033;-76
2023/08/14 01:59:07;;;;;;;4.20;3.10;;;;;;;;;;5009770;28;20536;-76
2023/08/14 02:01:33;;;;;;;7.32;3.63;;;;;;;;;;5011204;28;20425;-76
2023/08/14 02:03:58;;;;;;;6.88;3.17;;;;;;;;;;5026153;28;20033;-77
2023/08/14 02:06:24;;;;;;;4.78;3.38;;;;;;;;;;5026164;28;20084;-76
2023/08/14 02:08:50;;;;;;;4.15;2.88;;;;;;;;;;5026243;28;20041;-76
2023/08/14 02:11:15;;;;;;;3.90;3.15;;;;;;;;;;5011857;28;20161;-76
2023/08/14 02:13:42;;;;;;;3.67;2.92;;;;;;;;;;5011780;28;20022;-77
2023/08/14 02:16:08;;;;;;;3.28;2.97;;;;;;;;;;5010681;28;20117;-77
2023/08/14 02:18:35;;;;;;;4.70;4.05;;;;;;;;;;5027832;28;20117;-77
2023/08/14 02:21:01;;;;;;;7.28;4.57;;;;;;;;;;5013832;28;20521;-76
2023/08/14 02:23:26;;;;;;;6.40;4.57;;;;;;;;;;5013736;28;20026;-76
2023/08/14 02:25:55;;;;;;;6.70;4.82;;;;;;;;;;5031616;28;20054;-76
2023/08/14 02:28:21;;;;;;;6.32;4.78;;;;;;;;;;5016881;28;20470;-75
2023/08/14 02:30:46;;;;;;;9.57;5.53;;;;;;;;;;5016793;28;20167;-75
2023/08/14 02:33:13;;;;;;;6.28;4.35;;;;;;;;;;5013276;28;20508;-76
2023/08/14 02:35:39;;;;;;;6.50;5.25;;;;;;;;;;4998910;28;20029;-77
2023/08/14 02:38:06;;;;;;;8.18;4.90;;;;;;;;;;5029947;28;20380;-77
2023/08/14 02:40:33;;;;;;;8.15;5.78;;;;;;;;;;5014707;28;20022;-77
2023/08/14 02:43:00;;;;;;;6.90;5.57;;;;;;;;;;5013183;28;20014;-79
2023/08/14 02:45:26;;;;;;;7.85;5.50;;;;;;;;;;4996300;28;20411;-77
2023/08/14 02:47:52;;;;;;;7.82;5.43;;;;;;;;;;5014275;28;20084;-77
2023/08/14 02:50:18;;;;;;;8.07;5.85;;;;;;;;;;5012797;28;20056;-77
2023/08/14 02:52:43;;;;;;;7.55;5.32;;;;;;;;;;5012376;28;20029;-78
2023/08/14 02:55:09;;;;;;;11.57;5.63;;;;;;;;;;5014329;28;20510;-77
2023/08/14 02:57:34;;;;;;;8.00;5.35;;;;;;;;;;5029538;28;20061;-77
2023/08/14 03:00:00;;;;;;;8.35;5.28;;;;;;;;;;5014175;28;20451;-77
2023/08/14 03:02:26;;;;;;;5.82;5.13;;;;;;;;;;5014189;28;20048;-77
2023/08/14 03:04:52;;;;;;;7.22;5.60;;;;;;;;;;5012893;28;20080;-77
2023/08/14 03:07:18;;;;;;;9.57;5.40;;;;;;;;;;5029631;28;20053;-76
2023/08/14 03:09:44;;;;;;;10.50;6.28;;;;;;;;;;5029282;28;20025;-77
2023/08/14 03:12:09;;;;;;;22.35;7.80;;;;;;;;;;5030018;28;20038;-77
2023/08/14 03:14:35;;;;;;;15.73;6.55;;;;;;;;;;5012833;28;20030;-77
2023/08/14 03:17:01;;;;;;;12.38;5.78;;;;;;;;;;5014165;28;20026;-77
2023/08/14 03:19:26;;;;;;;19.77;6.20;;;;;;;;;;5029208;28;20034;-78
2023/08/14 03:21:52;;;;;;;7.35;5.75;;;;;;;;;;5029483;28;20076;-78
2023/08/14 03:24:18;;;;;;;10.00;6.32;;;;;;;;;;5029958;28;20072;-77
2023/08/14 03:26:45;;;;;;;7.57;4.57;;;;;;;;;;5029820;28;20149;-77
2023/08/14 03:29:10;;;;;;;7.32;5.03;;;;;;;;;;5014374;28;20514;-77
2023/08/14 03:31:36;;;;;;;9.23;4.70;;;;;;;;;;5012579;28;20033;-77
2023/08/14 03:34:02;;;;;;;8.20;4.57;;;;;;;;;;5029022;28;20029;-77
2023/08/14 03:36:28;;;;;;;6.43;5.03;;;;;;;;;;5012293;28;20030;-77
2023/08/14 03:38:53;;;;;;;10.60;4.60;;;;;;;;;;5028692;28;20080;-77
2023/08/14 03:41:19;;;;;;;5.97;4.30;;;;;;;;;;5013508;28;20022;-77
2023/08/14 03:43:45;;;;;;;6.18;4.30;;;;;;;;;;4995639;28;20375;-77
2023/08/14 03:46:11;;;;;;;16.25;5.85;;;;;;;;;;5012765;28;20076;-77
2023/08/14 03:48:37;;;;;;;10.15;6.85;;;;;;;;;;5011903;28;20037;-76
2023/08/14 03:51:03;;;;;;;9.93;5.38;;;;;;;;;;5012159;28;20034;-77
2023/08/14 03:53:30;;;;;;;8.23;5.00;;;;;;;;;;5013095;28;20130;-76
2023/08/14 03:55:55;;;;;;;11.00;5.30;;;;;;;;;;5011519;28;20076;-76
2023/08/14 03:58:21;;;;;;;16.08;5.90;;;;;;;;;;5028639;28;20061;-77
2023/08/14 04:00:47;;;;;;;18.38;6.70;;;;;;;;;;5013129;28;20502;-77
2023/08/14 04:03:14;;;;;;;11.55;5.97;;;;;;;;;;5028197;28;20540;-76
2023/08/14 04:05:40;;;;;;;8.75;5.47;;;;;;;;;;5027841;28;20021;-75
2023/08/14 04:08:07;;;;;;;26.25;7.72;;;;;;;;;;5011282;28;20026;-77
2023/08/14 04:10:33;;;;;;;13.38;5.22;;;;;;;;;;5027661;28;20025;-77
2023/08/14 04:12:59;;;;;;;8.70;4.70;;;;;;;;;;5012876;28;20110;-77
2023/08/14 04:15:25;;;;;;;9.68;5.57;;;;;;;;;;5011505;28;20041;-77
2023/08/14 04:17:51;;;;;;;7.93;5.18;;;;;;;;;;5011846;28;20030;-76
2023/08/14 04:20:17;;;;;;;9.68;7.20;;;;;;;;;;5027887;28;20040;-76
2023/08/14 04:22:43;;;;;;;16.27;6.97;;;;;;;;;;5011265;28;20431;-77
2023/08/14 04:25:09;;;;;;;16.08;6.10;;;;;;;;;;5011153;28;20095;-77
2023/08/14 04:27:39;;;;;;;12.48;6.65;;;;;;;;;;5028048;28;20032;-77
2023/08/14 04:30:05;;;;;;;7.35;5.03;;;;;;;;;;5013254;28;20037;-78
2023/08/14 04:32:32;;;;;;;13.27;5.50;;;;;;;;;;5011490;28;20026;-77
2023/08/14 04:34:58;;;;;;;11.35;5.63;;;;;;;;;;4995542;28;20075;-77
2023/08/14 04:37:23;;;;;;;9.90;4.90;;;;;;;;;;5011740;28;20394;-77
2023/08/14 04:39:50;;;;;;;10.10;5.93;;;;;;;;;;5006467;28;20461;-77
2023/08/14 04:42:15;;;;;;;15.20;5.45;;;;;;;;;;4992210;28;20148;-77
2023/08/14 04:44:41;;;;;;;9.93;5.28;;;;;;;;;;4998738;28;20037;-76
2023/08/14 04:47:07;;;;;;;10.85;5.90;;;;;;;;;;5013397;28;20030;-78
2023/08/14 04:49:33;;;;;;;11.30;5.50;;;;;;;;;;5015784;28;20533;-77
2023/08/14 04:51:59;;;;;;;11.05;5.47;;;;;;;;;;5031820;28;20042;-78
2023/08/14 04:54:26;;;;;;;9.38;5.00;;;;;;;;;;5031708;28;20554;-78
2023/08/14 04:56:52;;;;;;;10.80;5.30;;;;;;;;;;5033237;28;20507;-79
2023/08/14 04:59:19;;;;;;;12.88;5.85;;;;;;;;;;5035563;28;20029;-76
2023/08/14 05:01:45;;;;;;;9.40;6.28;;;;;;;;;;5054278;28;20035;-77
2023/08/14 05:04:11;;;;;;;14.88;5.78;;;;;;;;;;5042546;28;20021;-77
2023/08/14 05:06:37;;;;;;;17.85;6.20;;;;;;;;;;5039689;28;20072;-77
2023/08/14 05:09:03;;;;;;;19.80;6.07;;;;;;;;;;5037676;28;20033;-76
2023/08/14 05:11:29;;;;;;;17.10;5.65;;;;;;;;;;5035237;28;20363;-73
2023/08/14 05:13:57;;;;;;;12.52;5.00;;;;;;;;;;5015854;28;20025;-77
2023/08/14 05:16:23;;;;;;;7.72;5.00;;;;;;;;;;5007037;28;20030;-77
2023/08/14 05:18:49;;;;;;;9.48;5.10;;;;;;;;;;5009374;28;20041;-78
2023/08/14 05:21:15;;;;;;;7.65;4.40;;;;;;;;;;5010047;28;20339;-76
2023/08/14 05:23:40;;;;;;;19.38;5.72;;;;;;;;;;5012304;28;20176;-76
2023/08/14 05:26:06;;;;;;;6.38;4.38;;;;;;;;;;5038628;28;20072;-76
2023/08/14 05:28:32;;;;;;;17.13;6.53;;;;;;;;;;5009357;28;20026;-77
2023/08/14 05:30:57;;;;;;;5.57;4.20;;;;;;;;;;4991880;28;20367;-74
2023/08/14 05:33:23;;;;;;;9.68;5.40;;;;;;;;;;5006237;28;20378;-76
2023/08/14 05:35:49;;;;;;;6.68;4.07;;;;;;;;;;5010281;28;20485;-76
2023/08/14 05:38:15;;;;;;;7.90;5.38;;;;;;;;;;5010899;28;20029;-76
2023/08/14 05:40:41;;;;;;;12.02;5.55;;;;;;;;;;5014860;28;20029;-77
2023/08/14 05:43:09;;;;;;;7.10;4.60;;;;;;;;;;5023480;28;20041;-76
2023/08/14 05:45:42;;;;;;;14.07;5.65;;;;;;;;;;5013800;28;20094;-76
2023/08/14 05:48:10;;;;;;;15.13;11.85;;;;;;;;;;5042711;28;20037;-76
2023/08/14 05:50:36;;;;;;;11.45;5.20;;;;;;;;;;5010179;28;20136;-75
2023/08/14 05:53:04;;;;;;;22.65;6.60;;;;;;;;;;5009369;28;20080;-77
2023/08/14 05:55:34;;;;;;;7.38;5.20;;;;;;;;;;5007707;28;20038;-76
2023/08/14 05:58:02;;;;;;;12.98;5.25;;;;;;;;;;5001700;28;20022;-77
2023/08/14 06:00:28;;;;;;;6.60;4.90;;;;;;;;;;5014965;28;20775;-76
2023/08/14 06:02:54;;;;;;;10.02;5.47;;;;;;;;;;5026634;28;20030;-76
2023/08/14 06:05:21;;;;;;;11.80;5.13;;;;;;;;;;4999409;28;20033;-76
2023/08/14 06:07:48;;;;;;;8.10;5.00;;;;;;;;;;5012291;28;20033;-76
2023/08/14 06:10:14;;;;;;;9.02;5.07;;;;;;;;;;5013404;28;20033;-77
2023/08/14 06:12:39;;;;;;;7.53;5.40;;;;;;;;;;5016569;28;20051;-76
2023/08/14 06:15:07;;;;;;;9.13;5.25;;;;;;;;;;5013874;28;20108;-77
2023/08/14 06:17:34;;;;;;;9.88;4.72;;;;;;;;;;5022655;28;20042;-76
2023/08/14 06:20:00;;;;;;;5.50;4.20;;;;;;;;;;5010665;28;20578;-76
2023/08/14 06:22:27;;;;;;;10.77;6.35;;;;;;;;;;5016878;28;20029;-75
2023/08/14 06:24:53;;;;;;;21.77;6.45;;;;;;;;;;5015962;28;20029;-76
2023/08/14 06:27:19;;;;;;;8.63;5.15;;;;;;;;;;5030861;28;20477;-76
2023/08/14 06:29:45;;;;;;;9.02;4.22;;;;;;;;;;5043790;28;20504;-77
2023/08/14 06:32:11;;;;;;;5.80;4.00;;;;;;;;;;5015061;28;20021;-76
2023/08/14 06:34:36;;;;;;;8.77;5.50;;;;;;;;;;5030134;28;20026;-76
2023/08/14 06:37:02;;;;;;;20.08;5.25;;;;;;;;;;5031432;28;20029;-75
2023/08/14 06:39:28;;;;;;;14.05;6.35;;;;;;;;;;5029985;28;20029;-76
2023/08/14 06:41:57;;;;;;;27.40;7.40;;;;;;;;;;5040643;28;20552;-79
2023/08/14 06:44:23;;;;;;;27.42;7.32;;;;;;;;;;5018927;28;20017;-81
2023/08/14 06:46:49;;;;;;;13.20;5.25;;;;;;;;;;5045613;28;20552;-82
2023/08/14 06:49:15;;;;;;;9.75;4.82;;;;;;;;;;5035914;28;20493;-81
2023/08/14 06:51:41;;;;;;;12.73;5.10;;;;;;;;;;5010188;28;20026;-82
2023/08/14 06:54:06;;;;;;;18.17;5.13;;;;;;;;;;5020523;28;20119;-78
2023/08/14 06:56:32;;;;;;;7.18;4.80;;;;;;;;;;5033905;28;20049;-81
2023/08/14 06:58:58;;;;;;;10.32;4.82;;;;;;;;;;5032553;28;20072;-81
2023/08/14 07:01:27;;;;;;;9.43;4.65;;;;;;;;;;5035510;28;20029;-80
2023/08/14 07:03:56;;;;;;;16.63;6.28;;;;;;;;;;5028972;28;20087;-79
2023/08/14 07:06:21;;;;;;;9.80;5.00;;;;;;;;;;5030454;28;20029;-83
2023/08/14 07:08:47;;;;;;;9.02;4.85;;;;;;;;;;5033630;28;20086;-81
2023/08/14 07:11:13;;;;;;;8.05;5.00;;;;;;;;;;5020243;28;20465;-81
2023/08/14 07:13:39;;;;;;;7.25;4.55;;;;;;;;;;5034264;28;20037;-79
2023/08/14 07:16:04;;;;;;;6.18;4.57;;;;;;;;;;5031563;28;20449;-80
2023/08/14 07:18:30;;;;;;;13.93;5.45;;;;;;;;;;5035595;28;20513;-82
2023/08/14 07:20:58;;;;;;;10.93;5.05;;;;;;;;;;5049924;28;20355;-78
2023/08/14 07:23:24;;;;;;;6.95;5.28;;;;;;;;;;5038595;28;20041;-82
2023/08/14 07:25:50;;;;;;;8.70;4.63;;;;;;;;;;5018948;28;20565;-80
2023/08/14 07:28:17;;;;;;;11.63;5.85;;;;;;;;;;5026835;28;20045;-82
2023/08/14 07:30:42;;;;;;;7.57;4.93;;;;;;;;;;5021183;28;20061;-77
2023/08/14 07:33:10;;;;;;;5.65;5.00;;;;;;;;;;5048224;28;20029;-79
2023/08/14 07:35:36;;;;;;;8.43;5.03;;;;;;;;;;5022012;28;20029;-81
2023/08/14 07:38:03;;;;;;;8.00;5.22;;;;;;;;;;5008270;28;20112;-81
2023/08/14 07:40:28;;;;;;;7.05;5.20;;;;;;;;;;5024715;28;20026;-80
2023/08/14 07:42:54;;;;;;;13.40;5.68;;;;;;;;;;5012853;28;20030;-81
2023/08/14 07:45:19;;;;;;;9.60;5.65;;;;;;;;;;5014460;28;20046;-78
2023/08/14 07:47:45;;;;;;;7.43;5.10;;;;;;;;;;5034675;28;20045;-78
2023/08/14 07:50:11;;;;;;;18.40;5.60;;;;;;;;;;5015583;28;20022;-79
2023/08/14 07:52:37;;;;;;;16.90;6.00;;;;;;;;;;5021539;28;20117;-79
2023/08/14 07:55:03;;;;;;;12.68;5.18;;;;;;;;;;5020019;28;20028;-79
2023/08/14 07:57:28;;;;;;;9.27;5.57;;;;;;;;;;5011788;28;20029;-76
2023/08/14 07:59:54;;;;;;;8.23;4.82;;;;;;;;;;5007363;28;20030;-78
2023/08/14 08:02:20;;;;;;;25.30;6.30;;;;;;;;;;5015238;28;20033;-79
2023/08/14 08:08:14;;;;;;;9.77;5.70;;;;;;;;;;4996808;28;20046;-77
2023/08/14 08:10:41;;;;;;;7.85;4.78;;;;;;;;;;5026738;28;20018;-79
2023/08/14 08:13:09;;;;;;;6.80;5.63;;;;;;;;;;5036800;28;20060;-78
2023/08/14 08:15:35;;;;;;;7.20;5.25;;;;;;;;;;5011385;28;20060;-79
2023/08/14 08:18:01;;;;;;;8.98;5.82;;;;;;;;;;5002032;28;20034;-79
2023/08/14 08:20:27;;;;;;;6.55;5.28;;;;;;;;;;5008328;28;20379;-79
2023/08/14 08:22:54;;;;;;;8.30;5.35;;;;;;;;;;5002771;28;20057;-80
2023/08/14 08:25:20;;;;;;;12.95;6.68;;;;;;;;;;4943404;28;1418655;-79
2023/08/14 08:27:45;;;;;;;5.88;5.13;;;;;;;;;;4994618;28;20030;-80
2023/08/14 08:30:12;;;;;;;8.63;5.95;;;;;;;;;;5034441;28;20043;-79
2023/08/14 08:32:39;;;;;;;12.13;5.82;;;;;;;;;;5017844;28;20036;-80
2023/08/14 08:35:04;;;;;;;6.53;5.70;;;;;;;;;;5029412;28;20033;-79
2023/08/14 08:37:30;;;;;;;10.55;8.65;;;;;;;;;;5018699;28;20486;-80
2023/08/14 08:39:55;;;;;;;11.07;5.70;;;;;;;;;;5027705;28;20377;-77
2023/08/14 08:42:22;;;;;;;9.70;5.75;;;;;;;;;;5012337;28;20204;-78
2023/08/14 08:44:53;;;;;;;11.75;7.65;;;;;;;;;;5006964;28;20021;-77
2023/08/14 08:47:24;;;;;;;12.15;6.78;;;;;;;;;;5009182;28;20165;-78
2023/08/14 08:49:51;;;;;;;9.23;5.28;;;;;;;;;;5012147;28;20045;-77
2023/08/14 08:52:17;;;;;;;13.50;6.00;;;;;;;;;;5029951;28;20037;-78
2023/08/14 08:54:46;;;;;;;11.02;6.35;;;;;;;;;;5016926;28;20404;-80
2023/08/14 08:57:12;;;;;;;18.77;7.18;;;;;;;;;;5016781;28;20033;-80
2023/08/14 08:59:40;;;;;;;10.63;6.45;;;;;;;;;;5028604;28;20048;-78
2023/08/14 09:02:08;;;;;;;19.75;6.57;;;;;;;;;;5039565;28;20029;-79
2023/08/14 09:04:33;;;;;;;10.30;5.90;;;;;;;;;;5039446;28;20021;-77
2023/08/14 09:06:59;;;;;;;12.90;6.03;;;;;;;;;;5037895;28;20063;-80
2023/08/14 09:09:25;;;;;;;10.10;6.10;;;;;;;;;;5047033;28;20124;-81
2023/08/14 09:11:51;;;;;;;9.55;6.50;;;;;;;;;;5034439;28;20041;-77
2023/08/14 09:14:17;;;;;;;11.23;7.32;;;;;;;;;;5033039;28;20028;-81
2023/08/14 09:16:44;;;;;;;10.43;6.40;;;;;;;;;;5023073;28;20273;-79
2023/08/14 09:19:13;;;;;;;12.40;7.43;;;;;;;;;;5028064;28;20036;-78
2023/08/14 09:21:42;;;;;;;9.00;6.93;;;;;;;;;;5041567;28;20294;-77
2023/08/14 09:24:10;;;;;;;8.85;5.97;;;;;;;;;;5050384;28;20381;-75
2023/08/14 09:26:36;;;;;;;6.80;5.10;;;;;;;;;;5032157;28;20080;-79
2023/08/14 09:29:03;;;;;;;6.78;5.15;;;;;;;;;;5041331;28;20029;-81
2023/08/14 09:31:32;;;;;;;8.85;5.15;;;;;;;;;;5042981;28;20101;-77
2023/08/14 09:34:03;;;;;;;13.00;6.68;;;;;;;;;;5041078;28;20538;-80
2023/08/14 09:36:34;;;;;;;;;;;;;;;;;;5032165;28;20029;-78
2023/08/14 09:39:01;;;;;;;7.88;5.78;;;;;;;;;;5044209;28;19912;-78
2023/08/14 09:41:48;;;;;;;11.55;5.38;;;;;;;;;;5031206;28;20021;-79
2023/08/14 09:44:23;;;;;;;12.82;6.45;;;;;;;;;;5018564;28;20052;-79
2023/08/14 09:46:54;;;;;;;11.68;5.68;;;;;;;;;;5012472;28;20135;-80
2023/08/14 09:49:29;;;;;;;6.72;5.57;;;;;;;;;;5031919;28;20025;-80
2023/08/14 09:52:01;;;;;;;13.68;6.45;;;;;;;;;;5014919;28;20033;-80
2023/08/14 09:54:44;;;;;;;16.60;5.57;;;;;;;;;;5013016;28;20051;-82
2023/08/14 09:57:11;;;;;;;11.05;8.20;;;;;;;;;;5013099;28;20573;-80
2023/08/14 09:59:37;;;;;;;10.77;6.05;;;;;;;;;;5026234;28;20241;-84
2023/08/14 10:02:05;;;;;;;7.97;6.20;;;;;;;;;;5008754;28;20649;-82
2023/08/14 10:04:32;;;;;;;8.23;5.93;;;;;;;;;;5021532;28;20418;-77
2023/08/14 10:06:59;;;;;;;7.85;6.13;;;;;;;;;;5032125;28;20676;-80
2023/08/14 10:09:28;;;;;;;12.15;6.22;;;;;;;;;;5029683;28;20064;-82
2023/08/14 10:11:57;;;;;;;11.55;6.15;;;;;;;;;;5026837;28;20037;-81
2023/08/14 10:14:28;;;;;;;11.68;6.25;;;;;;;;;;5023538;28;20029;-78
2023/08/14 10:16:57;;;;;;;11.32;5.57;;;;;;;;;;5026058;28;20063;-77
2023/08/14 10:19:24;;;;;;;9.93;6.10;;;;;;;;;;5024215;28;20037;-78
2023/08/14 10:21:59;;;;;;;10.55;6.03;;;;;;;;;;5019865;28;20129;-80
2023/08/14 10:24:27;;;;;;;16.92;6.53;;;;;;;;;;5029032;28;20026;-79
2023/08/14 10:26:59;;;;;;;11.60;6.72;;;;;;;;;;5027837;28;20529;-80
2023/08/14 10:29:25;;;;;;;10.48;7.10;;;;;;;;;;5006338;28;20034;-81
2023/08/14 10:31:52;;;;;;;9.50;6.68;;;;;;;;;;4993029;28;20114;-80
2023/08/14 10:34:18;;;;;;;14.75;7.15;;;;;;;;;;5008619;28;20026;-80
2023/08/14 10:36:49;;;;;;;13.27;7.05;;;;;;;;;;5021695;28;20026;-81
2023/08/14 10:39:16;;;;;;;11.07;6.15;;;;;;;;;;4996277;28;20041;-78
2023/08/14 10:41:41;;;;;;;10.63;6.15;;;;;;;;;;5011247;28;20025;-80
2023/08/14 10:44:11;;;;;;;9.02;6.38;;;;;;;;;;5006653;28;20021;-76
2023/08/14 10:46:42;;;;;;;14.35;6.07;;;;;;;;;;5006247;28;20029;-82
2023/08/14 10:49:10;;;;;;;;;;;;;;;;;;5004213;28;20056;-80
2023/08/14 10:51:42;;;;;;;10.75;6.30;;;;;;;;;;5022636;28;19917;-80
2023/08/14 10:54:13;;;;;;;11.35;6.60;;;;;;;;;;5020401;28;20038;-79
2023/08/14 10:56:40;;;;;;;;;;;;;;;;;;5011436;28;20818;-78
2023/08/14 10:59:22;;;;;;;7.93;5.72;;;;;;;;;;4997737;28;19917;-81
2023/08/14 11:02:03;;;;;;;7.57;5.72;;;;;;;;;;5014474;28;20057;-77
2023/08/14 11:04:31;;;;;;;14.88;6.28;;;;;;;;;;5018951;28;20026;-80
2023/08/14 11:06:57;;;;;;;10.50;6.10;;;;;;;;;;5016720;28;20481;-81
2023/08/14 11:09:22;;;;;;;6.57;5.57;;;;;;;;;;5035276;28;20120;-77
2023/08/14 11:11:48;;;;;;;7.55;5.65;;;;;;;;;;5028336;28;20029;-79
2023/08/14 11:14:26;;;;;;;7.82;5.50;;;;;;;;;;5019038;28;20390;-79
2023/08/14 11:16:52;;;;;;;8.90;5.63;;;;;;;;;;5033582;28;20048;-78
2023/08/14 11:19:18;;;;;;;8.65;6.40;;;;;;;;;;5014804;28;20092;-79
2023/08/14 11:21:48;;;;;;;10.60;6.10;;;;;;;;;;5033567;28;20044;-78
2023/08/14 11:24:15;;;;;;;7.65;6.15;;;;;;;;;;5020853;28;20021;-77
2023/08/14 11:26:40;;;;;;;8.48;5.10;;;;;;;;;;5015354;28;20049;-77
2023/08/14 11:29:06;;;;;;;13.40;6.15;;;;;;;;;;5011997;28;20626;-77
2023/08/14 11:31:31;;;;;;;20.48;7.00;;;;;;;;;;5001654;28;20105;-78
2023/08/14 11:33:57;;;;;;;7.63;6.13;;;;;;;;;;5016524;28;20432;-78
2023/08/14 11:36:23;;;;;;;11.38;6.75;;;;;;;;;;5010401;28;20546;-77
2023/08/14 11:38:51;;;;;;;14.52;6.20;;;;;;;;;;5014794;28;20025;-79
2023/08/14 11:41:16;;;;;;;7.18;6.53;;;;;;;;;;5017284;28;20036;-79
2023/08/14 11:43:57;;;;;;;10.60;6.50;;;;;;;;;;5014689;28;20037;-77
2023/08/14 11:46:24;;;;;;;9.63;7.05;;;;;;;;;;5010934;28;20156;-78
2023/08/14 11:48:49;;;;;;;6.90;6.20;;;;;;;;;;5008209;28;20065;-79
2023/08/14 11:51:15;;;;;;;8.27;5.22;;;;;;;;;;5013357;28;20079;-78
2023/08/14 11:53:42;;;;;;;7.55;6.20;;;;;;;;;;5026996;28;20037;-76
2023/08/14 11:56:08;;;;;;;7.35;6.60;;;;;;;;;;5008885;28;20537;-77
2023/08/14 11:59:01;;;;;;;8.75;6.72;;;;;;;;;;5018188;28;20129;-77
2023/08/14 12:01:26;;;;;;;11.23;6.40;;;;;;;;;;5009380;28;20030;-81
2023/08/14 12:03:52;;;;;;;11.02;5.97;;;;;;;;;;5008333;28;20112;-78
2023/08/14 12:06:18;;;;;;;7.60;6.43;;;;;;;;;;5021904;28;20034;-80
2023/08/14 12:08:43;;;;;;;10.10;6.20;;;;;;;;;;5010791;28;20441;-78
2023/08/14 12:11:15;;;;;;;7.80;5.90;;;;;;;;;;5028486;28;20064;-79
2023/08/14 12:14:07;;;;;;;10.70;6.35;;;;;;;;;;5014234;28;20038;-77
2023/08/14 12:16:38;;;;;;;9.60;7.55;;;;;;;;;;5029007;28;20433;-78
2023/08/14 12:19:06;;;;;;;18.75;7.90;;;;;;;;;;5008518;28;20058;-78
2023/08/14 12:21:32;;;;;;;9.05;7.60;;;;;;;;;;5012904;28;20067;-79
2023/08/14 12:23:58;;;;;;;9.27;7.20;;;;;;;;;;5021387;28;20116;-79
2023/08/14 12:26:23;;;;;;;9.95;6.20;;;;;;;;;;5037201;28;20056;-79
2023/08/14 12:28:52;;;;;;;15.35;6.65;;;;;;;;;;5026096;28;20021;-77
2023/08/14 12:31:18;;;;;;;12.13;6.43;;;;;;;;;;5030895;28;20029;-77
2023/08/14 12:33:44;;;;;;;6.97;6.30;;;;;;;;;;5023466;28;20079;-79
2023/08/14 12:36:11;;;;;;;11.05;7.65;;;;;;;;;;5033981;28;20022;-79
2023/08/14 12:38:37;;;;;;;7.28;6.65;;;;;;;;;;5008598;28;20072;-80
2023/08/14 12:41:04;;;;;;;9.20;7.78;;;;;;;;;;5029154;28;20022;-78
2023/08/14 12:43:30;;;;;;;8.85;6.32;;;;;;;;;;5018108;28;20022;-78
2023/08/14 12:45:58;;;;;;;11.82;6.43;;;;;;;;;;5010668;28;20037;-78
2023/08/14 12:48:24;;;;;;;7.15;5.93;;;;;;;;;;5029271;28;20022;-78
2023/08/14 12:50:49;;;;;;;12.98;6.07;;;;;;;;;;5016200;28;20087;-79
2023/08/14 12:53:18;;;;;;;10.93;6.85;;;;;;;;;;5027604;28;20030;-79
2023/08/14 12:55:48;;;;;;;11.63;5.90;;;;;;;;;;5016520;28;20033;-78
2023/08/14 12:58:14;;;;;;;8.73;6.18;;;;;;;;;;5014961;28;20060;-78
2023/08/14 13:00:43;;;;;;;7.32;5.97;;;;;;;;;;5008267;28;20037;-77
2023/08/14 13:03:09;;;;;;;11.18;5.45;;;;;;;;;;5022606;28;20034;-78
2023/08/14 13:05:35;;;;;;;7.03;5.43;;;;;;;;;;5007218;28;20018;-79
2023/08/14 13:08:01;;;;;;;9.25;5.47;;;;;;;;;;5008859;28;20386;-77
2023/08/14 13:10:28;;;;;;;10.68;5.50;;;;;;;;;;5011229;28;20037;-79
2023/08/14 13:12:56;;;;;;;9.07;6.53;;;;;;;;;;5011417;28;20037;-78
2023/08/14 13:15:26;;;;;;;17.60;6.88;;;;;;;;;;5018553;28;20024;-77
2023/08/14 13:17:53;;;;;;;11.55;5.90;;;;;;;;;;5009256;28;20726;-78
2023/08/14 13:20:19;;;;;;;6.32;5.55;;;;;;;;;;5017053;28;20394;-79
2023/08/14 13:22:45;;;;;;;14.00;6.03;;;;;;;;;;5016713;28;20030;-81
2023/08/14 13:25:13;;;;;;;10.65;5.55;;;;;;;;;;5021509;28;20035;-77
2023/08/14 13:27:40;;;;;;;14.23;7.85;;;;;;;;;;5031974;28;20037;-79
2023/08/14 13:30:07;;;;;;;8.13;6.05;;;;;;;;;;5031735;28;20109;-78
2023/08/14 13:32:33;;;;;;;8.73;6.60;;;;;;;;;;5033594;28;20065;-79
2023/08/14 13:35:03;;;;;;;9.77;5.65;;;;;;;;;;5033316;28;20114;-78
2023/08/14 13:37:32;;;;;;;9.00;6.15;;;;;;;;;;5023003;28;20533;-79
2023/08/14 13:39:58;;;;;;;11.97;5.43;;;;;;;;;;5023032;28;20037;-78
2023/08/14 13:42:28;;;;;;;9.27;5.78;;;;;;;;;;5024769;28;20324;-78
2023/08/14 13:44:54;;;;;;;10.13;5.80;;;;;;;;;;5035732;28;20564;-78
2023/08/14 13:47:25;;;;;;;9.57;5.45;;;;;;;;;;5037405;28;20547;-77
2023/08/14 13:49:52;;;;;;;6.30;4.80;;;;;;;;;;5033294;28;20497;-78
2023/08/14 13:52:18;;;;;;;6.72;4.47;;;;;;;;;;5042342;28;20511;-76
2023/08/14 13:54:44;;;;;;;9.85;5.53;;;;;;;;;;5034694;28;20079;-77
2023/08/14 13:57:11;;;;;;;12.02;5.70;;;;;;;;;;5035407;28;20041;-78
2023/08/14 13:59:42;;;;;;;10.95;5.82;;;;;;;;;;5034392;28;20049;-78
2023/08/14 14:02:12;;;;;;;13.35;5.53;;;;;;;;;;5022548;28;20036;-77
2023/08/14 14:04:41;;;;;;;13.70;6.30;;;;;;;;;;5040710;28;20079;-77
2023/08/14 14:07:07;;;;;;;8.50;5.57;;;;;;;;;;5032483;28;20450;-78
2023/08/14 14:09:34;;;;;;;8.65;5.07;;;;;;;;;;5032271;28;20025;-79
2023/08/14 14:12:06;;;;;;;7.60;4.82;;;;;;;;;;5028853;28;20028;-79
2023/08/14 14:14:35;;;;;;;11.00;4.90;;;;;;;;;;5040096;28;20434;-79
2023/08/14 14:17:04;;;;;;;10.48;5.25;;;;;;;;;;5034308;28;20037;-78
2023/08/14 14:19:30;;;;;;;5.20;4.45;;;;;;;;;;5034826;28;20037;-77
2023/08/14 14:21:58;;;;;;;13.15;4.43;;;;;;;;;;5056436;28;20048;-79
2023/08/14 14:24:25;;;;;;;6.63;4.40;;;;;;;;;;5046359;28;20017;-77
2023/08/14 14:26:53;;;;;;;8.90;4.17;;;;;;;;;;5046078;28;20072;-77
2023/08/14 14:29:23;;;;;;;7.65;4.35;;;;;;;;;;5044360;28;20020;-80
2023/08/14 14:31:49;;;;;;;;;;;;;;;;;;5043228;28;21055;-80
2023/08/14 14:34:16;;;;;;;6.18;3.50;;;;;;;;;;5031497;28;19951;-78
2023/08/14 14:36:47;;;;;;;8.88;4.38;;;;;;;;;;5038182;28;20048;-80
2023/08/14 14:39:15;;;;;;;8.48;3.90;;;;;;;;;;5043333;28;20040;-79
2023/08/14 14:41:41;;;;;;;8.50;3.88;;;;;;;;;;5035532;28;20057;-81
2023/08/14 14:44:07;;;;;;;7.63;3.83;;;;;;;;;;5020212;28;20021;-78